Dixons Mills, Alabama
Current Conditions -  °F | °C
As of 5:55 PM on Sunday 25 Jan 2015 (Local Time) from KDYA Reporting Station
Scattered Clouds Scattered Clouds  
Wind Chill: 59°   Ceiling: Unl
Heat Index: 59°   Visibility: 10mi
Dew Point: 38°   Wind: 10mph
Humidity: 45%   Direction: 210°SSW
Pressure: 29.78"   Gusts: NA
Location:  32.06°N, 87.79°W
Report Text: KDYA 252355Z AUTO 21009KT 10SM SCT120 15/03 A2978 RMK AO2 T01510032 10180 20151
Loading
Personal Weather Stations






























Interactive Weather Map New forecast layout! Learn more

10-Day Weather Forecast

Advertisements
Track Severe Weather on mobile